createdAt,value
2018-07-07T00:00:36.191Z,1.05
2018-07-07T00:03:04.896Z,1.60
2018-07-07T00:05:33.525Z,1.87
2018-07-07T00:08:02.342Z,1.75
2018-07-07T00:10:30.921Z,1.40
2018-07-07T00:12:59.496Z,1.40
2018-07-07T00:15:28.063Z,1.82
2018-07-07T00:17:56.711Z,1.70
2018-07-07T00:20:25.516Z,1.47
2018-07-07T00:22:54.076Z,1.40
2018-07-07T00:25:22.698Z,1.40
2018-07-07T00:27:52.084Z,1.50
2018-07-07T00:30:20.825Z,1.70
2018-07-07T00:32:50.160Z,1.37
2018-07-07T00:35:19.370Z,1.80
2018-07-07T00:37:48.057Z,1.60
2018-07-07T00:40:16.760Z,1.42
2018-07-07T00:42:45.493Z,1.57
2018-07-07T00:45:14.051Z,0.98
2018-07-07T00:47:42.647Z,1.42
2018-07-07T00:50:11.247Z,1.50
2018-07-07T00:52:39.967Z,1.35
2018-07-07T00:55:08.712Z,1.50
2018-07-07T00:57:37.218Z,1.37
2018-07-07T01:00:05.985Z,1.40
2018-07-07T01:02:34.215Z,1.67
2018-07-07T01:05:02.773Z,1.30
2018-07-07T01:07:30.982Z,1.40
2018-07-07T01:09:59.637Z,1.40
2018-07-07T01:12:28.188Z,1.85
2018-07-07T01:14:56.801Z,1.42
2018-07-07T01:17:25.490Z,1.50
2018-07-07T01:19:54.502Z,1.40
2018-07-07T01:22:23.030Z,1.42
2018-07-07T01:24:51.653Z,1.30
2018-07-07T01:27:20.226Z,1.75
2018-07-07T01:29:48.799Z,1.60
2018-07-07T01:32:17.783Z,1.27
2018-07-07T01:34:46.480Z,1.40
2018-07-07T01:37:15.166Z,2.00
2018-07-07T01:39:43.754Z,1.42
2018-07-07T01:42:13.057Z,1.42
2018-07-07T01:44:41.271Z,1.22
2018-07-07T01:47:09.847Z,1.50
2018-07-07T01:49:38.633Z,1.10
2018-07-07T01:52:06.825Z,1.60
2018-07-07T01:54:35.439Z,1.52
2018-07-07T01:57:04.494Z,1.60
2018-07-07T01:59:33.230Z,1.67
2018-07-07T02:02:02.269Z,1.20
2018-07-07T02:04:30.857Z,1.52
2018-07-07T02:06:59.378Z,1.40
2018-07-07T02:09:28.320Z,1.40
2018-07-07T02:11:56.944Z,1.32
2018-07-07T02:14:25.706Z,1.30
2018-07-07T02:16:54.340Z,1.60
2018-07-07T02:19:23.351Z,1.52
2018-07-07T02:21:52.747Z,1.32
2018-07-07T02:24:21.436Z,1.55
2018-07-07T02:26:50.491Z,1.40
2018-07-07T02:29:19.142Z,1.50
2018-07-07T02:31:48.602Z,1.50
2018-07-07T02:34:17.238Z,1.57
2018-07-07T02:36:45.822Z,1.67
2018-07-07T02:39:14.379Z,1.60
2018-07-07T02:41:42.988Z,1.40
2018-07-07T02:44:11.529Z,1.50
2018-07-07T02:46:40.598Z,1.62
2018-07-07T02:49:09.102Z,1.65
2018-07-07T02:51:37.988Z,1.62
2018-07-07T02:54:06.775Z,1.52
2018-07-07T02:56:35.499Z,1.50
2018-07-07T02:59:04.075Z,1.62
2018-07-07T03:01:32.673Z,1.70
2018-07-07T03:04:01.255Z,1.62
2018-07-07T03:06:29.957Z,1.30
2018-07-07T03:08:58.538Z,1.80
2018-07-07T03:11:27.195Z,1.65
2018-07-07T03:13:55.803Z,1.82
2018-07-07T03:16:24.505Z,1.70
2018-07-07T03:18:54.005Z,1.67
2018-07-07T03:21:22.753Z,2.00
2018-07-07T03:23:51.417Z,1.50
2018-07-07T03:26:20.448Z,1.70
2018-07-07T03:28:50.764Z,1.55
2018-07-07T03:31:20.082Z,1.42
2018-07-07T03:33:49.506Z,1.67
2018-07-07T03:36:18.221Z,1.70
2018-07-07T03:38:46.825Z,1.50
2018-07-07T03:41:15.403Z,1.80
2018-07-07T03:43:44.058Z,1.75
2018-07-07T03:46:12.721Z,1.50
2018-07-07T03:48:41.431Z,1.50
2018-07-07T03:51:10.104Z,1.82
2018-07-07T03:53:38.791Z,2.25
2018-07-07T03:56:07.408Z,1.50
2018-07-07T03:58:35.938Z,1.87
2018-07-07T04:01:04.599Z,1.80
2018-07-07T04:03:33.173Z,1.62
2018-07-07T04:06:01.828Z,1.70
2018-07-07T04:08:31.174Z,1.72
2018-07-07T04:10:59.725Z,1.37
2018-07-07T04:13:28.836Z,1.80
2018-07-07T04:16:00.765Z,1.57
2018-07-07T04:18:34.721Z,1.70
2018-07-07T04:21:04.554Z,1.27
2018-07-07T04:23:34.416Z,1.90
2018-07-07T04:26:03.339Z,1.95
2018-07-07T04:28:32.425Z,1.62
2018-07-07T04:31:01.401Z,1.62
2018-07-07T04:33:30.541Z,1.90
2018-07-07T04:35:59.253Z,1.42
2018-07-07T04:38:27.852Z,1.90
2018-07-07T04:40:56.525Z,1.50
2018-07-07T04:43:25.184Z,1.62
2018-07-07T04:45:54.411Z,1.60
2018-07-07T04:48:23.913Z,1.57
2018-07-07T04:50:58.759Z,1.60
2018-07-07T04:53:27.531Z,1.50
2018-07-07T04:55:56.286Z,1.30
2018-07-07T04:58:24.877Z,1.57
2018-07-07T05:00:55.843Z,1.55
2018-07-07T05:03:28.295Z,1.35
2018-07-07T05:05:59.773Z,1.40
2018-07-07T05:08:30.625Z,1.62
2018-07-07T05:11:01.768Z,1.55
2018-07-07T05:13:33.663Z,1.42
2018-07-07T05:16:06.969Z,1.32
2018-07-07T05:18:38.610Z,1.12
2018-07-07T05:21:09.541Z,1.35
2018-07-07T05:23:40.958Z,1.15
2018-07-07T05:26:13.268Z,1.00
2018-07-07T05:28:44.610Z,1.42
2018-07-07T05:31:15.541Z,1.10
2018-07-07T05:33:49.516Z,1.15
2018-07-07T05:36:20.225Z,1.35
2018-07-07T05:38:51.917Z,1.42
2018-07-07T05:41:20.698Z,1.05
2018-07-07T05:43:49.799Z,1.07
2018-07-07T05:46:19.176Z,1.20
2018-07-07T05:48:48.485Z,1.00
2018-07-07T05:51:18.616Z,1.00
2018-07-07T05:53:47.429Z,1.00
2018-07-07T05:56:16.781Z,1.20
2018-07-07T05:58:45.438Z,1.00
2018-07-07T06:01:14.061Z,1.27
2018-07-07T06:03:42.795Z,1.00
2018-07-07T06:06:11.624Z,0.90
2018-07-07T06:08:41.726Z,0.82
2018-07-07T06:11:10.336Z,0.98
2018-07-07T06:13:40.128Z,1.10
2018-07-07T06:16:08.942Z,1.20
2018-07-07T06:18:37.844Z,1.00
2018-07-07T06:21:07.041Z,1.00
2018-07-07T06:23:35.673Z,0.70
2018-07-07T06:26:04.306Z,1.10
2018-07-07T06:28:32.574Z,1.07
2018-07-07T06:31:01.255Z,1.25
2018-07-07T06:33:29.919Z,0.78
2018-07-07T06:35:58.626Z,1.00
2018-07-07T06:38:27.237Z,0.90
2018-07-07T06:40:56.232Z,0.85
2018-07-07T06:43:25.206Z,0.82
2018-07-07T06:45:55.172Z,0.70
2018-07-07T06:48:24.830Z,0.62
2018-07-07T06:50:54.131Z,0.80
2018-07-07T06:53:22.812Z,1.10
2018-07-07T06:55:51.602Z,1.00
2018-07-07T06:58:20.297Z,1.00
2018-07-07T07:00:49.099Z,0.60
2018-07-07T07:03:17.779Z,0.78
2018-07-07T07:05:46.593Z,0.80
2018-07-07T07:08:15.933Z,1.05
2018-07-07T07:10:44.767Z,0.80
2018-07-07T07:13:13.500Z,0.95
2018-07-07T07:15:42.527Z,0.95
2018-07-07T07:18:11.387Z,0.90
2018-07-07T07:20:40.646Z,1.20
2018-07-07T07:23:09.230Z,0.80
2018-07-07T07:25:37.933Z,0.68
2018-07-07T07:28:07.045Z,0.72
2018-07-07T07:30:35.621Z,0.80
2018-07-07T07:33:04.202Z,1.00
2018-07-07T07:35:32.428Z,0.80
2018-07-07T07:38:01.026Z,0.90
2018-07-07T07:40:30.157Z,0.75
2018-07-07T07:42:58.738Z,0.80
2018-07-07T07:45:27.356Z,0.65
2018-07-07T07:47:56.916Z,0.82
2018-07-07T07:50:26.329Z,0.90
2018-07-07T07:52:55.018Z,1.00
2018-07-07T07:55:23.713Z,1.00
2018-07-07T07:57:52.084Z,1.35
2018-07-07T08:00:21.351Z,1.02
2018-07-07T08:02:50.664Z,0.90
2018-07-07T08:05:19.186Z,1.15
2018-07-07T08:07:48.006Z,1.02
2018-07-07T08:10:16.562Z,0.93
2018-07-07T08:12:45.808Z,1.05
2018-07-07T08:15:14.434Z,1.50
2018-07-07T08:17:42.972Z,1.27
2018-07-07T08:20:11.533Z,1.50
2018-07-07T08:22:41.021Z,1.37
2018-07-07T08:25:09.821Z,1.50
2018-07-07T08:27:38.474Z,1.40
2018-07-07T08:30:07.808Z,1.17
2018-07-07T08:32:36.372Z,1.50
2018-07-07T08:35:05.043Z,1.80
2018-07-07T08:37:33.568Z,1.80
2018-07-07T08:40:02.233Z,2.00
2018-07-07T08:42:31.155Z,2.08
2018-07-07T08:44:59.829Z,2.22
2018-07-07T08:47:28.495Z,1.85
2018-07-07T08:49:57.112Z,2.10
2018-07-07T08:52:26.214Z,2.60
2018-07-07T08:54:54.838Z,2.75
2018-07-07T08:57:23.944Z,2.72
2018-07-07T08:59:52.789Z,2.22
2018-07-07T09:02:22.017Z,3.62
2018-07-07T09:04:52.019Z,3.20
2018-07-07T09:07:20.682Z,3.15
2018-07-07T09:09:49.505Z,3.45
2018-07-07T09:12:18.587Z,3.80
2018-07-07T09:14:47.574Z,3.20
2018-07-07T09:17:16.248Z,4.03
2018-07-07T09:19:44.880Z,4.47
2018-07-07T09:22:13.422Z,3.80
2018-07-07T09:24:42.134Z,3.72
2018-07-07T09:27:10.645Z,3.72
2018-07-07T09:29:39.433Z,3.87
2018-07-07T09:32:07.996Z,3.75
2018-07-07T09:34:36.524Z,3.50
2018-07-07T09:37:05.484Z,3.85
2018-07-07T09:39:35.047Z,3.37
2018-07-07T09:42:03.622Z,3.30
2018-07-07T09:44:32.217Z,3.55
2018-07-07T09:47:01.123Z,3.35
2018-07-07T09:49:30.236Z,3.20
2018-07-07T09:51:59.030Z,3.50
2018-07-07T09:54:27.900Z,3.72
2018-07-07T09:56:56.520Z,3.30
2018-07-07T09:59:25.156Z,3.30
2018-07-07T10:01:55.004Z,3.12
2018-07-07T10:04:24.378Z,3.12
2018-07-07T10:06:52.935Z,2.98
2018-07-07T10:09:21.493Z,2.77
2018-07-07T10:11:50.506Z,3.33
2018-07-07T10:14:19.330Z,3.25
2018-07-07T10:16:48.324Z,3.30
2018-07-07T10:19:17.262Z,3.20
2018-07-07T10:21:45.990Z,3.27
2018-07-07T10:24:14.984Z,3.15
2018-07-07T10:26:43.602Z,3.67
2018-07-07T10:29:12.746Z,3.40
2018-07-07T10:31:41.564Z,3.22
2018-07-07T10:34:10.520Z,3.40
2018-07-07T10:36:39.363Z,3.12
2018-07-07T10:39:07.948Z,3.27
2018-07-07T10:41:38.002Z,3.22
2018-07-07T10:44:06.596Z,3.22
2018-07-07T10:46:35.269Z,3.47
2018-07-07T10:49:03.868Z,3.15
2018-07-07T10:51:32.498Z,3.25
2018-07-07T10:54:01.329Z,3.58
2018-07-07T10:56:30.069Z,3.70
2018-07-07T10:58:59.223Z,3.08
2018-07-07T11:01:27.902Z,3.22
2018-07-07T11:03:58.107Z,3.20
2018-07-07T11:06:26.657Z,2.58
2018-07-07T11:08:55.657Z,2.90
2018-07-07T11:11:24.831Z,2.90
2018-07-07T11:13:53.508Z,3.00
2018-07-07T11:16:23.139Z,3.40
2018-07-07T11:18:52.118Z,3.20
2018-07-07T11:21:21.712Z,3.20
2018-07-07T11:23:50.424Z,2.77
2018-07-07T11:26:19.210Z,3.27
2018-07-07T11:28:47.950Z,2.85
2018-07-07T11:31:16.644Z,3.27
2018-07-07T11:36:13.718Z,3.10
2018-07-07T11:38:42.432Z,3.30
2018-07-07T11:41:11.719Z,3.37
2018-07-07T11:43:40.969Z,3.58
2018-07-07T11:46:09.867Z,3.70
2018-07-07T11:48:39.205Z,3.65
2018-07-07T11:51:07.979Z,3.50
2018-07-07T11:53:36.594Z,3.85
2018-07-07T11:56:05.236Z,3.90
2018-07-07T11:58:33.900Z,3.55
2018-07-07T12:01:02.441Z,3.67
2018-07-07T12:03:31.061Z,3.92
2018-07-07T12:05:59.810Z,3.90
2018-07-07T12:08:28.373Z,3.70
2018-07-07T12:10:57.433Z,3.22
2018-07-07T12:13:27.682Z,4.42
2018-07-07T12:15:56.707Z,3.60
2018-07-07T12:18:25.685Z,3.98
2018-07-07T12:20:56.291Z,3.35
2018-07-07T12:23:25.653Z,3.47
2018-07-07T12:25:54.683Z,3.52
2018-07-07T12:28:24.369Z,3.08
2018-07-07T12:30:53.312Z,3.10
2018-07-07T12:33:21.962Z,3.42
2018-07-07T12:35:50.609Z,3.35
2018-07-07T12:38:19.209Z,3.50
2018-07-07T12:40:48.012Z,3.02
2018-07-07T12:43:17.633Z,3.00
2018-07-07T12:45:46.497Z,2.83
2018-07-07T12:48:15.514Z,3.12
2018-07-07T12:50:44.130Z,3.00
2018-07-07T12:53:12.720Z,2.77
2018-07-07T12:59:06.503Z,2.72
2018-07-07T13:01:34.769Z,3.05
2018-07-07T13:04:03.327Z,2.67
2018-07-07T13:06:32.200Z,2.98
2018-07-07T13:09:00.986Z,2.50
2018-07-07T13:11:29.645Z,2.60
2018-07-07T13:13:58.216Z,2.60
2018-07-07T13:16:26.893Z,2.80
2018-07-07T13:18:55.535Z,2.87
2018-07-07T13:21:24.179Z,2.60
2018-07-07T13:23:53.453Z,3.02
2018-07-07T13:26:22.981Z,2.60
2018-07-07T13:28:51.645Z,2.77
2018-07-07T13:31:20.384Z,3.08
2018-07-07T13:33:49.066Z,2.80
2018-07-07T13:36:17.755Z,3.10
2018-07-07T13:38:46.634Z,2.98
2018-07-07T13:41:15.300Z,2.90
2018-07-07T13:43:43.919Z,3.35
2018-07-07T13:46:12.596Z,2.92
2018-07-07T13:48:41.304Z,3.10
2018-07-07T13:51:10.531Z,3.25
2018-07-07T13:53:39.982Z,3.50
2018-07-07T13:56:08.750Z,3.40
2018-07-07T13:58:38.102Z,3.10
2018-07-07T14:01:07.104Z,3.20
2018-07-07T14:03:35.690Z,2.98
2018-07-07T14:06:03.915Z,3.02
2018-07-07T14:08:32.487Z,2.90
2018-07-07T14:11:01.638Z,3.02
2018-07-07T14:13:30.342Z,3.00
2018-07-07T14:15:58.931Z,3.00
2018-07-07T14:18:27.609Z,3.35
2018-07-07T14:20:56.195Z,2.95
2018-07-07T14:23:24.982Z,3.10
2018-07-07T14:25:53.568Z,2.95
2018-07-07T14:28:22.543Z,3.15
2018-07-07T14:30:51.318Z,3.00
2018-07-07T14:33:20.241Z,2.95
2018-07-07T14:35:49.055Z,2.87
2018-07-07T14:38:19.695Z,2.95
2018-07-07T14:41:25.999Z,2.52
2018-07-07T14:44:03.051Z,2.58
2018-07-07T14:46:32.819Z,2.70
2018-07-07T14:49:01.388Z,2.30
2018-07-07T14:51:30.096Z,2.50
2018-07-07T14:53:58.863Z,2.98
2018-07-07T14:56:28.197Z,2.80
2018-07-07T14:58:57.344Z,2.60
2018-07-07T15:01:26.067Z,2.72
2018-07-07T15:04:01.716Z,2.95
2018-07-07T15:06:30.547Z,2.87
2018-07-07T15:08:59.085Z,2.55
2018-07-07T15:11:28.025Z,2.67
2018-07-07T15:13:56.713Z,2.42
2018-07-07T15:16:25.250Z,2.80
2018-07-07T15:18:54.951Z,2.30
2018-07-07T15:21:23.583Z,2.30
2018-07-07T15:23:52.387Z,2.70
2018-07-07T15:26:21.185Z,2.52
2018-07-07T15:28:50.189Z,2.40
2018-07-07T15:31:19.402Z,2.58
2018-07-07T15:33:48.163Z,2.37
2018-07-07T15:36:16.830Z,2.65
2018-07-07T15:38:46.177Z,2.40
2018-07-07T15:41:14.907Z,2.42
2018-07-07T15:43:43.457Z,2.30
2018-07-07T15:46:12.432Z,2.50
2018-07-07T15:48:41.010Z,2.45
2018-07-07T15:51:09.599Z,2.25
2018-07-07T15:53:38.613Z,2.33
2018-07-07T15:56:08.059Z,2.33
2018-07-07T15:58:36.678Z,2.40
2018-07-07T16:01:05.808Z,2.65
2018-07-07T16:03:34.342Z,2.37
2018-07-07T16:06:03.153Z,2.30
2018-07-07T16:08:31.937Z,2.25
2018-07-07T16:11:00.672Z,2.30
2018-07-07T16:13:29.844Z,2.08
2018-07-07T16:15:58.912Z,2.20
2018-07-07T16:18:27.993Z,2.10
2018-07-07T16:20:56.652Z,2.20
2018-07-07T16:23:25.360Z,2.40
2018-07-07T16:25:54.247Z,2.33
2018-07-07T16:28:22.973Z,2.08
2018-07-07T16:30:51.693Z,2.50
2018-07-07T16:33:20.303Z,2.08
2018-07-07T16:35:49.419Z,2.10
2018-07-07T16:38:18.765Z,2.22
2018-07-07T16:40:48.096Z,2.10
2018-07-07T16:43:17.646Z,2.30
2018-07-07T16:45:46.659Z,2.00
2018-07-07T16:48:15.576Z,1.92
2018-07-07T16:50:44.439Z,1.95
2018-07-07T16:53:14.126Z,2.00
2018-07-07T16:55:42.829Z,2.00
2018-07-07T16:58:13.254Z,2.12
2018-07-07T17:00:41.972Z,2.25
2018-07-07T17:03:10.617Z,1.90
2018-07-07T17:05:39.041Z,2.20
2018-07-07T17:08:07.869Z,2.45
2018-07-07T17:10:36.660Z,1.95
2018-07-07T17:13:05.346Z,2.00
2018-07-07T17:15:34.608Z,1.87
2018-07-07T17:18:04.894Z,1.95
2018-07-07T17:20:34.220Z,2.00
2018-07-07T17:23:03.192Z,2.20
2018-07-07T17:25:31.814Z,2.30
2018-07-07T17:28:00.516Z,2.10
2018-07-07T17:30:29.509Z,2.15
2018-07-07T17:32:58.348Z,2.17
2018-07-07T17:35:27.023Z,1.92
2018-07-07T17:38:00.160Z,1.98
2018-07-07T17:40:29.144Z,1.90
2018-07-07T17:42:57.896Z,1.90
2018-07-07T17:45:27.333Z,2.50
2018-07-07T17:47:56.205Z,2.15
2018-07-07T17:50:24.967Z,2.25
2018-07-07T17:52:54.221Z,2.47
2018-07-07T17:55:24.204Z,1.90
2018-07-07T17:57:53.336Z,1.95
2018-07-07T18:00:22.348Z,2.22
2018-07-07T18:02:51.772Z,2.02
2018-07-07T18:05:20.704Z,2.02
2018-07-07T18:07:49.871Z,2.12
2018-07-07T18:10:18.632Z,2.52
2018-07-07T18:12:47.539Z,2.05
2018-07-07T18:15:15.993Z,2.12
2018-07-07T18:17:45.611Z,2.15
2018-07-07T18:20:14.076Z,1.77
2018-07-07T18:22:42.715Z,2.00
2018-07-07T18:25:11.213Z,1.90
2018-07-07T18:27:39.975Z,2.20
2018-07-07T18:30:08.618Z,1.90
2018-07-07T18:32:37.377Z,1.92
2018-07-07T18:35:06.105Z,1.90
2018-07-07T18:37:34.667Z,2.00
2018-07-07T18:40:03.356Z,1.77
2018-07-07T18:42:31.904Z,1.92
2018-07-07T18:45:00.784Z,2.10
2018-07-07T18:47:29.488Z,2.17
2018-07-07T18:49:58.159Z,1.90
2018-07-07T18:52:26.729Z,2.15
2018-07-07T18:54:55.441Z,1.87
2018-07-07T18:57:24.380Z,2.05
2018-07-07T18:59:53.219Z,2.00
2018-07-07T19:02:22.178Z,1.87
2018-07-07T19:04:50.973Z,2.10
2018-07-07T19:07:20.296Z,2.27
2018-07-07T19:09:49.237Z,1.98
2018-07-07T19:12:18.287Z,1.92
2018-07-07T19:14:47.373Z,2.05
2018-07-07T19:17:15.990Z,2.10
2018-07-07T19:19:44.767Z,1.77
2018-07-07T19:22:19.247Z,2.62
2018-07-07T19:24:53.137Z,2.08
2018-07-07T19:27:21.765Z,2.20
2018-07-07T19:29:51.413Z,1.87
2018-07-07T19:32:25.763Z,2.20
2018-07-07T19:34:59.721Z,2.02
2018-07-07T19:37:28.108Z,2.08
2018-07-07T19:39:56.750Z,2.33
2018-07-07T19:42:25.357Z,2.30
2018-07-07T19:44:55.015Z,1.90
2018-07-07T19:47:24.192Z,1.98
2018-07-07T19:49:53.560Z,1.47
2018-07-07T19:52:22.246Z,2.08
2018-07-07T19:54:50.878Z,3.27
2018-07-07T19:57:19.606Z,2.47
2018-07-07T19:59:48.384Z,2.00
2018-07-07T20:02:17.131Z,2.02
2018-07-07T20:04:45.859Z,1.90
2018-07-07T20:07:14.661Z,2.05
2018-07-07T20:09:43.442Z,1.55
2018-07-07T20:12:12.066Z,2.05
2018-07-07T20:14:40.638Z,1.87
2018-07-07T20:17:10.637Z,2.00
2018-07-07T20:20:58.867Z,1.75
2018-07-07T20:23:30.270Z,1.40
2018-07-07T20:26:05.048Z,2.10
2018-07-07T20:28:38.928Z,1.90
2018-07-07T20:31:07.531Z,1.52
2018-07-07T20:33:36.182Z,1.57
2018-07-07T20:36:05.033Z,2.08
2018-07-07T20:38:34.455Z,1.82
2018-07-07T20:41:03.243Z,2.08
2018-07-07T20:43:32.242Z,1.52
2018-07-07T20:46:01.240Z,1.65
2018-07-07T20:48:29.870Z,1.77
2018-07-07T20:50:58.730Z,1.50
2018-07-07T20:53:27.736Z,1.57
2018-07-07T20:55:56.620Z,1.80
2018-07-07T20:58:25.842Z,1.57
2018-07-07T21:00:55.819Z,1.70
2018-07-07T21:03:24.888Z,1.75
2018-07-07T21:05:54.102Z,1.60
2018-07-07T21:08:23.300Z,1.80
2018-07-07T21:10:52.719Z,2.02
2018-07-07T21:13:21.358Z,1.90
2018-07-07T21:15:50.293Z,1.70
2018-07-07T21:18:19.211Z,1.95
2018-07-07T21:20:47.714Z,2.08
2018-07-07T21:23:16.903Z,2.20
2018-07-07T21:25:45.559Z,1.70
2018-07-07T21:28:14.427Z,2.22
2018-07-07T21:30:43.310Z,1.80
2018-07-07T21:33:11.961Z,2.12
2018-07-07T21:35:41.105Z,1.82
2018-07-07T21:38:10.146Z,1.90
2018-07-07T21:40:38.930Z,1.67
2018-07-07T21:43:07.481Z,2.02
2018-07-07T21:45:37.724Z,1.90
2018-07-07T21:48:07.690Z,2.20
2018-07-07T21:50:36.746Z,2.00
2018-07-07T21:53:07.070Z,1.77
2018-07-07T21:55:37.722Z,1.87
2018-07-07T21:58:13.082Z,1.80
2018-07-07T22:00:58.887Z,2.22
2018-07-07T22:03:32.756Z,2.08
2018-07-07T22:06:08.264Z,1.60
2018-07-07T22:08:38.193Z,1.70
2018-07-07T22:11:08.489Z,1.60
2018-07-07T22:13:38.701Z,1.45
2018-07-07T22:16:08.688Z,1.70
2018-07-07T22:18:39.276Z,1.52
2018-07-07T22:21:20.217Z,1.85
2018-07-07T22:23:50.327Z,1.77
2018-07-07T22:26:19.577Z,1.80
2018-07-07T22:28:48.427Z,1.70
2018-07-07T22:31:17.022Z,2.00
2018-07-07T23:23:28.768Z,2.20
2018-07-07T23:25:57.713Z,2.42
2018-07-07T23:28:28.149Z,2.35
2018-07-07T23:30:58.209Z,2.30
2018-07-07T23:33:27.606Z,2.72
2018-07-07T23:35:57.052Z,2.45
2018-07-07T23:38:26.722Z,2.22
2018-07-07T23:40:57.480Z,2.10
2018-07-07T23:43:27.576Z,2.35
2018-07-07T23:45:56.170Z,2.40
2018-07-07T23:48:26.168Z,2.35
2018-07-07T23:50:55.005Z,2.00
2018-07-07T23:53:25.507Z,2.45
2018-07-07T23:55:54.995Z,2.30
2018-07-07T23:58:28.089Z,2.30
